메인 페이지
METAR-TAF:

METAR-TAF

공항 :

히베이랑프레투, 상파울루, 브라질

위도: 21-08S, 경도: 047-47W, 고도: 549m

현재 날씨관측

예보는 1 시간 0분 전, 22:00시(UTC)에 발표되었습니다.
남서3kt
온도 33°C
습도 24%
기압 1012 hPa
시정 10km 이상
1500m 미만 상공 구름 및 적란운 없음

METAR: SBRP 182200Z 22003KT CAVOK 33/10 Q1012

시각: 20:00 (23:00 UTC)

예보

예보는 7 시간 0분 전, 16:00시(UTC)에 발표되었습니다.
예보 대상 시간: 18일 18시부터 19일 06시까지 (UTC)
서북서5kt
시정 10km 이상
1500m 미만 상공 구름 및 적란운 없음
전환 중
18일 21시부터 18일 23시까지 (UTC)
kt

TAF: SBRP 181600Z 1818/1906 30005KT CAVOK TX37/1818Z TN24/1906Z BECMG 1821/1823 00000KT RMK PGH

4,000개 이상의 공항 관측 자료 및 예보 (METAR 및 TAF 보고).

지도상에서 검색 가능한 기상관측소가 노란 점과 빨간 점으로 표시되어 있습니다.

기상관측소 명을 보려면 표시 위로 마우스를 이동하세요.

날씨 관측과 예보를 보려면 클릭하세요.

지도 변경 : 확대하려면 엑스 표시가 있는 녹색 버튼, 축소하려면 빼기 표시가 있는 녹색 버튼, 다음 페이지의 지도를 보려면 녹색 화살표를 클릭하세요.


METAR-TAF: